sensor_id;sensor_type;location;lat;lon;timestamp;P1;durP1;ratioP1;P2;durP2;ratioP2
53519;SDS011;39397;53.204;5.778;2023-08-06T00:02:18;6.20;;;5.15;;
53519;SDS011;39397;53.204;5.778;2023-08-06T00:04:43;10.60;;;5.72;;
53519;SDS011;39397;53.204;5.778;2023-08-06T00:07:09;6.85;;;5.82;;
53519;SDS011;39397;53.204;5.778;2023-08-06T00:09:35;7.88;;;6.28;;
53519;SDS011;39397;53.204;5.778;2023-08-06T00:12:00;6.68;;;5.50;;
53519;SDS011;39397;53.204;5.778;2023-08-06T00:14:26;8.45;;;5.95;;
53519;SDS011;39397;53.204;5.778;2023-08-06T00:16:52;7.80;;;6.55;;
53519;SDS011;39397;53.204;5.778;2023-08-06T00:19:17;11.25;;;6.60;;
53519;SDS011;39397;53.204;5.778;2023-08-06T00:21:50;10.20;;;7.05;;
53519;SDS011;39397;53.204;5.778;2023-08-06T00:24:16;10.45;;;7.43;;
53519;SDS011;39397;53.204;5.778;2023-08-06T00:26:42;11.45;;;7.53;;
53519;SDS011;39397;53.204;5.778;2023-08-06T00:29:07;12.38;;;9.02;;
53519;SDS011;39397;53.204;5.778;2023-08-06T00:31:33;12.10;;;8.63;;
53519;SDS011;39397;53.204;5.778;2023-08-06T00:33:59;11.63;;;7.88;;
53519;SDS011;39397;53.204;5.778;2023-08-06T00:36:27;9.77;;;7.80;;
53519;SDS011;39397;53.204;5.778;2023-08-06T00:38:53;8.73;;;6.97;;
53519;SDS011;39397;53.204;5.778;2023-08-06T00:41:21;10.88;;;8.90;;
53519;SDS011;39397;53.204;5.778;2023-08-06T00:43:47;9.88;;;8.70;;
53519;SDS011;39397;53.204;5.778;2023-08-06T00:46:13;11.82;;;9.30;;
53519;SDS011;39397;53.204;5.778;2023-08-06T00:48:39;10.80;;;9.32;;
53519;SDS011;39397;53.204;5.778;2023-08-06T00:51:06;14.57;;;10.15;;
53519;SDS011;39397;53.204;5.778;2023-08-06T00:53:39;12.98;;;9.93;;
53519;SDS011;39397;53.204;5.778;2023-08-06T00:56:06;11.13;;;9.10;;
53519;SDS011;39397;53.204;5.778;2023-08-06T00:58:32;10.20;;;9.10;;
53519;SDS011;39397;53.204;5.778;2023-08-06T01:00:59;13.10;;;9.85;;
53519;SDS011;39397;53.204;5.778;2023-08-06T01:03:25;12.27;;;9.57;;
53519;SDS011;39397;53.204;5.778;2023-08-06T01:05:57;11.05;;;9.18;;
53519;SDS011;39397;53.204;5.778;2023-08-06T01:14:33;12.85;;;10.20;;
53519;SDS011;39397;53.204;5.778;2023-08-06T01:17:13;11.50;;;9.27;;
53519;SDS011;39397;53.204;5.778;2023-08-06T01:19:40;10.30;;;9.05;;
53519;SDS011;39397;53.204;5.778;2023-08-06T01:22:05;11.90;;;9.48;;
53519;SDS011;39397;53.204;5.778;2023-08-06T01:24:35;13.32;;;9.90;;
53519;SDS011;39397;53.204;5.778;2023-08-06T01:27:06;10.43;;;8.50;;
53519;SDS011;39397;53.204;5.778;2023-08-06T01:29:47;12.48;;;9.35;;
53519;SDS011;39397;53.204;5.778;2023-08-06T01:32:22;12.13;;;9.05;;
53519;SDS011;39397;53.204;5.778;2023-08-06T01:34:56;12.10;;;9.65;;
53519;SDS011;39397;53.204;5.778;2023-08-06T01:37:23;12.43;;;9.43;;
53519;SDS011;39397;53.204;5.778;2023-08-06T01:39:49;10.68;;;8.48;;
53519;SDS011;39397;53.204;5.778;2023-08-06T01:42:15;12.85;;;8.75;;
53519;SDS011;39397;53.204;5.778;2023-08-06T01:44:41;12.00;;;9.45;;
53519;SDS011;39397;53.204;5.778;2023-08-06T01:47:07;12.98;;;10.15;;
53519;SDS011;39397;53.204;5.778;2023-08-06T01:49:32;15.25;;;10.27;;
53519;SDS011;39397;53.204;5.778;2023-08-06T01:51:58;11.27;;;9.57;;
53519;SDS011;39397;53.204;5.778;2023-08-06T01:54:24;13.50;;;10.40;;
53519;SDS011;39397;53.204;5.778;2023-08-06T01:56:50;15.57;;;10.57;;
53519;SDS011;39397;53.204;5.778;2023-08-06T01:59:15;14.48;;;10.50;;
53519;SDS011;39397;53.204;5.778;2023-08-06T02:01:41;13.27;;;9.55;;
53519;SDS011;39397;53.204;5.778;2023-08-06T02:04:12;12.02;;;9.18;;
53519;SDS011;39397;53.204;5.778;2023-08-06T02:06:38;14.65;;;11.52;;
53519;SDS011;39397;53.204;5.778;2023-08-06T02:09:04;13.98;;;11.15;;
53519;SDS011;39397;53.204;5.778;2023-08-06T02:11:29;12.23;;;9.68;;
53519;SDS011;39397;53.204;5.778;2023-08-06T02:13:55;12.90;;;10.20;;
53519;SDS011;39397;53.204;5.778;2023-08-06T02:16:21;16.20;;;11.93;;
53519;SDS011;39397;53.204;5.778;2023-08-06T02:18:48;13.55;;;11.45;;
53519;SDS011;39397;53.204;5.778;2023-08-06T02:21:13;13.52;;;10.50;;
53519;SDS011;39397;53.204;5.778;2023-08-06T02:23:40;14.43;;;9.75;;
53519;SDS011;39397;53.204;5.778;2023-08-06T02:26:06;16.95;;;11.52;;
53519;SDS011;39397;53.204;5.778;2023-08-06T02:28:32;15.02;;;10.55;;
53519;SDS011;39397;53.204;5.778;2023-08-06T02:30:57;15.77;;;11.38;;
53519;SDS011;39397;53.204;5.778;2023-08-06T02:33:23;12.02;;;9.07;;
53519;SDS011;39397;53.204;5.778;2023-08-06T02:35:49;14.98;;;11.43;;
53519;SDS011;39397;53.204;5.778;2023-08-06T02:38:15;10.70;;;8.90;;
53519;SDS011;39397;53.204;5.778;2023-08-06T02:40:44;13.95;;;10.80;;
53519;SDS011;39397;53.204;5.778;2023-08-06T02:43:10;11.68;;;9.55;;
53519;SDS011;39397;53.204;5.778;2023-08-06T02:45:36;12.52;;;10.70;;
53519;SDS011;39397;53.204;5.778;2023-08-06T02:48:03;15.57;;;12.10;;
53519;SDS011;39397;53.204;5.778;2023-08-06T02:50:29;11.77;;;10.07;;
53519;SDS011;39397;53.204;5.778;2023-08-06T02:52:55;13.43;;;10.40;;
53519;SDS011;39397;53.204;5.778;2023-08-06T02:55:21;11.77;;;9.77;;
53519;SDS011;39397;53.204;5.778;2023-08-06T02:57:47;15.30;;;11.23;;
53519;SDS011;39397;53.204;5.778;2023-08-06T03:00:12;15.10;;;11.52;;
53519;SDS011;39397;53.204;5.778;2023-08-06T03:02:38;13.25;;;9.90;;
53519;SDS011;39397;53.204;5.778;2023-08-06T03:05:04;15.65;;;10.23;;
53519;SDS011;39397;53.204;5.778;2023-08-06T03:07:31;14.68;;;10.10;;
53519;SDS011;39397;53.204;5.778;2023-08-06T03:09:59;13.60;;;10.48;;
53519;SDS011;39397;53.204;5.778;2023-08-06T03:12:26;12.55;;;10.55;;
53519;SDS011;39397;53.204;5.778;2023-08-06T03:14:52;14.43;;;11.32;;
53519;SDS011;39397;53.204;5.778;2023-08-06T03:17:18;14.93;;;10.65;;
53519;SDS011;39397;53.204;5.778;2023-08-06T03:19:44;14.32;;;9.90;;
53519;SDS011;39397;53.204;5.778;2023-08-06T03:22:09;11.95;;;9.35;;
53519;SDS011;39397;53.204;5.778;2023-08-06T03:24:44;12.32;;;9.77;;
53519;SDS011;39397;53.204;5.778;2023-08-06T03:27:09;13.57;;;9.57;;
53519;SDS011;39397;53.204;5.778;2023-08-06T03:29:35;12.70;;;10.52;;
53519;SDS011;39397;53.204;5.778;2023-08-06T03:32:02;11.77;;;9.52;;
53519;SDS011;39397;53.204;5.778;2023-08-06T03:34:29;13.25;;;10.73;;
53519;SDS011;39397;53.204;5.778;2023-08-06T03:36:55;12.55;;;9.45;;
53519;SDS011;39397;53.204;5.778;2023-08-06T03:39:20;13.52;;;10.32;;
53519;SDS011;39397;53.204;5.778;2023-08-06T03:41:49;15.95;;;9.93;;
53519;SDS011;39397;53.204;5.778;2023-08-06T03:44:15;11.65;;;9.38;;
53519;SDS011;39397;53.204;5.778;2023-08-06T03:46:40;11.23;;;9.25;;
53519;SDS011;39397;53.204;5.778;2023-08-06T03:49:06;13.70;;;10.48;;
53519;SDS011;39397;53.204;5.778;2023-08-06T03:51:36;11.95;;;9.45;;
53519;SDS011;39397;53.204;5.778;2023-08-06T03:54:01;14.75;;;10.82;;
53519;SDS011;39397;53.204;5.778;2023-08-06T03:56:27;12.55;;;10.23;;
53519;SDS011;39397;53.204;5.778;2023-08-06T03:58:54;13.38;;;9.18;;
53519;SDS011;39397;53.204;5.778;2023-08-06T04:01:19;13.07;;;10.25;;
53519;SDS011;39397;53.204;5.778;2023-08-06T04:03:45;13.32;;;9.93;;
53519;SDS011;39397;53.204;5.778;2023-08-06T04:06:12;14.07;;;11.40;;
53519;SDS011;39397;53.204;5.778;2023-08-06T04:08:38;14.45;;;10.52;;
53519;SDS011;39397;53.204;5.778;2023-08-06T04:11:04;14.57;;;11.25;;
53519;SDS011;39397;53.204;5.778;2023-08-06T04:13:30;12.77;;;11.02;;
53519;SDS011;39397;53.204;5.778;2023-08-06T04:16:02;11.48;;;9.75;;
53519;SDS011;39397;53.204;5.778;2023-08-06T04:18:28;12.63;;;10.35;;
53519;SDS011;39397;53.204;5.778;2023-08-06T04:20:55;12.38;;;10.38;;
53519;SDS011;39397;53.204;5.778;2023-08-06T04:23:22;13.38;;;10.68;;
53519;SDS011;39397;53.204;5.778;2023-08-06T04:25:48;13.80;;;10.77;;
53519;SDS011;39397;53.204;5.778;2023-08-06T04:28:13;14.30;;;10.93;;
53519;SDS011;39397;53.204;5.778;2023-08-06T04:30:39;14.27;;;11.95;;
53519;SDS011;39397;53.204;5.778;2023-08-06T04:33:05;11.38;;;10.15;;
53519;SDS011;39397;53.204;5.778;2023-08-06T04:35:30;15.65;;;11.38;;
53519;SDS011;39397;53.204;5.778;2023-08-06T04:37:59;12.80;;;10.65;;
53519;SDS011;39397;53.204;5.778;2023-08-06T04:40:28;11.13;;;9.85;;
53519;SDS011;39397;53.204;5.778;2023-08-06T04:42:59;13.15;;;10.43;;
53519;SDS011;39397;53.204;5.778;2023-08-06T04:45:25;13.70;;;10.48;;
53519;SDS011;39397;53.204;5.778;2023-08-06T04:47:51;12.05;;;9.35;;
53519;SDS011;39397;53.204;5.778;2023-08-06T04:50:17;11.45;;;9.73;;
53519;SDS011;39397;53.204;5.778;2023-08-06T04:52:45;16.02;;;11.30;;
53519;SDS011;39397;53.204;5.778;2023-08-06T04:55:10;13.07;;;10.48;;
53519;SDS011;39397;53.204;5.778;2023-08-06T04:57:36;16.73;;;11.48;;
53519;SDS011;39397;53.204;5.778;2023-08-06T05:00:02;15.55;;;11.45;;
53519;SDS011;39397;53.204;5.778;2023-08-06T05:02:32;12.98;;;10.77;;
53519;SDS011;39397;53.204;5.778;2023-08-06T05:05:00;17.20;;;10.88;;
53519;SDS011;39397;53.204;5.778;2023-08-06T05:07:26;13.32;;;10.85;;
53519;SDS011;39397;53.204;5.778;2023-08-06T05:09:52;12.48;;;10.13;;
53519;SDS011;39397;53.204;5.778;2023-08-06T05:12:18;12.88;;;10.95;;
53519;SDS011;39397;53.204;5.778;2023-08-06T05:14:44;12.82;;;10.18;;
53519;SDS011;39397;53.204;5.778;2023-08-06T05:17:11;13.75;;;10.77;;
53519;SDS011;39397;53.204;5.778;2023-08-06T05:19:38;12.63;;;10.75;;
53519;SDS011;39397;53.204;5.778;2023-08-06T05:22:04;13.13;;;9.73;;
53519;SDS011;39397;53.204;5.778;2023-08-06T05:24:29;12.32;;;10.05;;
53519;SDS011;39397;53.204;5.778;2023-08-06T05:26:55;12.43;;;10.93;;
53519;SDS011;39397;53.204;5.778;2023-08-06T05:29:21;12.45;;;10.68;;
53519;SDS011;39397;53.204;5.778;2023-08-06T05:31:46;16.88;;;10.43;;
53519;SDS011;39397;53.204;5.778;2023-08-06T05:34:12;15.80;;;10.60;;
53519;SDS011;39397;53.204;5.778;2023-08-06T05:36:38;13.93;;;9.90;;
53519;SDS011;39397;53.204;5.778;2023-08-06T05:39:04;12.38;;;9.55;;
53519;SDS011;39397;53.204;5.778;2023-08-06T05:41:35;11.80;;;9.95;;
53519;SDS011;39397;53.204;5.778;2023-08-06T05:44:01;11.23;;;8.52;;
53519;SDS011;39397;53.204;5.778;2023-08-06T05:46:26;14.90;;;10.10;;
53519;SDS011;39397;53.204;5.778;2023-08-06T05:48:52;10.75;;;8.73;;
53519;SDS011;39397;53.204;5.778;2023-08-06T05:51:18;10.15;;;8.85;;
53519;SDS011;39397;53.204;5.778;2023-08-06T05:53:44;10.05;;;8.77;;
53519;SDS011;39397;53.204;5.778;2023-08-06T05:56:11;11.80;;;9.38;;
53519;SDS011;39397;53.204;5.778;2023-08-06T05:58:36;12.48;;;8.88;;
53519;SDS011;39397;53.204;5.778;2023-08-06T06:01:02;11.32;;;9.05;;
53519;SDS011;39397;53.204;5.778;2023-08-06T06:03:28;11.38;;;9.70;;
53519;SDS011;39397;53.204;5.778;2023-08-06T06:05:53;10.40;;;9.25;;
53519;SDS011;39397;53.204;5.778;2023-08-06T06:08:19;11.35;;;8.52;;
53519;SDS011;39397;53.204;5.778;2023-08-06T06:10:45;9.30;;;7.85;;
53519;SDS011;39397;53.204;5.778;2023-08-06T06:13:10;11.60;;;8.63;;
53519;SDS011;39397;53.204;5.778;2023-08-06T06:15:36;13.18;;;9.25;;
53519;SDS011;39397;53.204;5.778;2023-08-06T06:18:03;10.45;;;8.50;;
53519;SDS011;39397;53.204;5.778;2023-08-06T06:20:28;8.95;;;8.00;;
53519;SDS011;39397;53.204;5.778;2023-08-06T06:22:56;10.55;;;8.25;;
53519;SDS011;39397;53.204;5.778;2023-08-06T06:25:22;9.77;;;8.10;;
53519;SDS011;39397;53.204;5.778;2023-08-06T06:27:48;9.13;;;7.95;;
53519;SDS011;39397;53.204;5.778;2023-08-06T06:30:13;9.23;;;8.18;;
53519;SDS011;39397;53.204;5.778;2023-08-06T06:32:39;11.52;;;8.30;;
53519;SDS011;39397;53.204;5.778;2023-08-06T06:35:06;8.55;;;7.65;;
53519;SDS011;39397;53.204;5.778;2023-08-06T06:37:32;15.00;;;8.65;;
53519;SDS011;39397;53.204;5.778;2023-08-06T06:39:57;12.30;;;8.27;;
53519;SDS011;39397;53.204;5.778;2023-08-06T06:42:23;9.40;;;7.15;;
53519;SDS011;39397;53.204;5.778;2023-08-06T06:44:49;10.32;;;8.32;;
53519;SDS011;39397;53.204;5.778;2023-08-06T06:47:15;10.13;;;7.95;;
53519;SDS011;39397;53.204;5.778;2023-08-06T06:49:40;8.50;;;7.10;;
53519;SDS011;39397;53.204;5.778;2023-08-06T06:52:06;7.63;;;6.82;;
53519;SDS011;39397;53.204;5.778;2023-08-06T06:54:32;9.90;;;7.57;;
53519;SDS011;39397;53.204;5.778;2023-08-06T06:56:58;9.18;;;7.32;;
53519;SDS011;39397;53.204;5.778;2023-08-06T06:59:23;9.18;;;7.40;;
53519;SDS011;39397;53.204;5.778;2023-08-06T07:01:49;10.60;;;6.93;;
53519;SDS011;39397;53.204;5.778;2023-08-06T07:04:15;9.98;;;7.65;;
53519;SDS011;39397;53.204;5.778;2023-08-06T07:06:40;7.10;;;6.00;;
53519;SDS011;39397;53.204;5.778;2023-08-06T07:09:06;8.13;;;7.07;;
53519;SDS011;39397;53.204;5.778;2023-08-06T07:11:32;8.23;;;6.13;;
53519;SDS011;39397;53.204;5.778;2023-08-06T07:13:57;6.75;;;5.90;;
53519;SDS011;39397;53.204;5.778;2023-08-06T07:16:24;9.63;;;6.25;;
53519;SDS011;39397;53.204;5.778;2023-08-06T07:18:51;7.10;;;5.90;;
53519;SDS011;39397;53.204;5.778;2023-08-06T07:21:18;7.55;;;6.38;;
53519;SDS011;39397;53.204;5.778;2023-08-06T07:23:44;7.00;;;6.30;;
53519;SDS011;39397;53.204;5.778;2023-08-06T07:26:10;9.02;;;7.05;;
53519;SDS011;39397;53.204;5.778;2023-08-06T07:28:36;6.50;;;5.53;;
53519;SDS011;39397;53.204;5.778;2023-08-06T07:31:02;9.30;;;5.78;;
53519;SDS011;39397;53.204;5.778;2023-08-06T07:33:28;7.20;;;5.57;;
53519;SDS011;39397;53.204;5.778;2023-08-06T07:35:54;8.15;;;5.15;;
53519;SDS011;39397;53.204;5.778;2023-08-06T07:38:19;7.07;;;4.90;;
53519;SDS011;39397;53.204;5.778;2023-08-06T07:40:46;6.95;;;4.97;;
53519;SDS011;39397;53.204;5.778;2023-08-06T07:43:12;6.15;;;5.18;;
53519;SDS011;39397;53.204;5.778;2023-08-06T07:45:37;5.65;;;4.78;;
53519;SDS011;39397;53.204;5.778;2023-08-06T07:48:03;8.38;;;5.65;;
53519;SDS011;39397;53.204;5.778;2023-08-06T07:50:29;6.18;;;5.10;;
53519;SDS011;39397;53.204;5.778;2023-08-06T07:53:05;6.15;;;4.43;;
53519;SDS011;39397;53.204;5.778;2023-08-06T07:55:31;6.43;;;4.75;;
53519;SDS011;39397;53.204;5.778;2023-08-06T07:57:57;6.25;;;5.00;;
53519;SDS011;39397;53.204;5.778;2023-08-06T08:00:22;7.15;;;4.57;;
53519;SDS011;39397;53.204;5.778;2023-08-06T08:02:48;6.18;;;4.85;;
53519;SDS011;39397;53.204;5.778;2023-08-06T08:05:14;6.78;;;4.68;;
53519;SDS011;39397;53.204;5.778;2023-08-06T08:07:39;6.72;;;4.63;;
53519;SDS011;39397;53.204;5.778;2023-08-06T08:10:05;6.05;;;4.43;;
53519;SDS011;39397;53.204;5.778;2023-08-06T08:12:31;5.63;;;4.57;;
53519;SDS011;39397;53.204;5.778;2023-08-06T08:14:57;7.65;;;4.97;;
53519;SDS011;39397;53.204;5.778;2023-08-06T08:17:23;5.88;;;4.30;;
53519;SDS011;39397;53.204;5.778;2023-08-06T08:19:48;8.38;;;4.63;;
53519;SDS011;39397;53.204;5.778;2023-08-06T08:22:14;6.47;;;4.40;;
53519;SDS011;39397;53.204;5.778;2023-08-06T08:24:40;5.85;;;3.50;;
53519;SDS011;39397;53.204;5.778;2023-08-06T08:27:05;6.65;;;4.38;;
53519;SDS011;39397;53.204;5.778;2023-08-06T08:29:31;5.78;;;4.25;;
53519;SDS011;39397;53.204;5.778;2023-08-06T08:31:57;5.82;;;4.10;;
53519;SDS011;39397;53.204;5.778;2023-08-06T08:34:23;5.88;;;4.35;;
53519;SDS011;39397;53.204;5.778;2023-08-06T08:36:49;5.43;;;3.72;;
53519;SDS011;39397;53.204;5.778;2023-08-06T08:39:15;6.53;;;4.25;;
53519;SDS011;39397;53.204;5.778;2023-08-06T08:41:40;5.10;;;3.40;;
53519;SDS011;39397;53.204;5.778;2023-08-06T08:44:08;5.25;;;3.80;;
53519;SDS011;39397;53.204;5.778;2023-08-06T08:46:38;5.35;;;3.80;;
53519;SDS011;39397;53.204;5.778;2023-08-06T08:49:06;4.55;;;3.47;;
53519;SDS011;39397;53.204;5.778;2023-08-06T08:51:35;6.72;;;3.40;;
53519;SDS011;39397;53.204;5.778;2023-08-06T08:54:02;6.30;;;4.22;;
53519;SDS011;39397;53.204;5.778;2023-08-06T08:56:29;4.80;;;3.17;;
53519;SDS011;39397;53.204;5.778;2023-08-06T08:58:55;5.95;;;3.60;;
53519;SDS011;39397;53.204;5.778;2023-08-06T09:01:21;5.10;;;3.33;;
53519;SDS011;39397;53.204;5.778;2023-08-06T09:03:47;4.80;;;3.40;;
53519;SDS011;39397;53.204;5.778;2023-08-06T09:06:13;6.18;;;3.47;;
53519;SDS011;39397;53.204;5.778;2023-08-06T09:09:06;5.20;;;2.95;;
53519;SDS011;39397;53.204;5.778;2023-08-06T09:11:28;5.00;;;2.58;;
53519;SDS011;39397;53.204;5.778;2023-08-06T09:13:56;4.20;;;2.80;;
53519;SDS011;39397;53.204;5.778;2023-08-06T09:16:23;3.80;;;2.55;;
53519;SDS011;39397;53.204;5.778;2023-08-06T09:18:49;4.63;;;2.40;;
53519;SDS011;39397;53.204;5.778;2023-08-06T09:21:14;3.58;;;2.08;;
53519;SDS011;39397;53.204;5.778;2023-08-06T09:23:41;4.38;;;2.47;;
53519;SDS011;39397;53.204;5.778;2023-08-06T09:26:07;3.97;;;2.58;;
53519;SDS011;39397;53.204;5.778;2023-08-06T09:28:37;7.78;;;2.85;;
53519;SDS011;39397;53.204;5.778;2023-08-06T09:31:08;3.20;;;2.17;;
53519;SDS011;39397;53.204;5.778;2023-08-06T09:33:38;4.28;;;2.42;;
53519;SDS011;39397;53.204;5.778;2023-08-06T09:36:07;3.55;;;2.08;;
53519;SDS011;39397;53.204;5.778;2023-08-06T09:38:37;5.90;;;1.90;;
53519;SDS011;39397;53.204;5.778;2023-08-06T09:41:05;3.95;;;2.00;;
53519;SDS011;39397;53.204;5.778;2023-08-06T09:43:38;2.55;;;1.80;;
53519;SDS011;39397;53.204;5.778;2023-08-06T09:46:12;2.88;;;1.70;;
53519;SDS011;39397;53.204;5.778;2023-08-06T09:48:39;3.65;;;1.63;;
53519;SDS011;39397;53.204;5.778;2023-08-06T09:51:06;3.65;;;1.75;;
53519;SDS011;39397;53.204;5.778;2023-08-06T09:53:34;3.20;;;1.60;;
53519;SDS011;39397;53.204;5.778;2023-08-06T09:56:02;5.70;;;1.85;;
53519;SDS011;39397;53.204;5.778;2023-08-06T09:58:29;3.20;;;1.77;;
53519;SDS011;39397;53.204;5.778;2023-08-06T10:00:57;4.45;;;1.80;;
53519;SDS011;39397;53.204;5.778;2023-08-06T10:03:24;4.97;;;1.73;;
53519;SDS011;39397;53.204;5.778;2023-08-06T10:05:50;4.95;;;1.65;;
53519;SDS011;39397;53.204;5.778;2023-08-06T10:08:16;4.25;;;2.17;;
53519;SDS011;39397;53.204;5.778;2023-08-06T10:10:42;4.38;;;1.50;;
53519;SDS011;39397;53.204;5.778;2023-08-06T10:13:09;4.07;;;1.90;;
53519;SDS011;39397;53.204;5.778;2023-08-06T10:15:36;2.95;;;1.65;;
53519;SDS011;39397;53.204;5.778;2023-08-06T10:18:03;5.15;;;1.83;;
53519;SDS011;39397;53.204;5.778;2023-08-06T10:20:34;3.33;;;1.60;;
53519;SDS011;39397;53.204;5.778;2023-08-06T10:23:09;4.28;;;1.85;;
53519;SDS011;39397;53.204;5.778;2023-08-06T10:25:35;4.60;;;1.80;;
53519;SDS011;39397;53.204;5.778;2023-08-06T10:28:09;3.63;;;1.85;;
53519;SDS011;39397;53.204;5.778;2023-08-06T10:30:46;4.43;;;1.50;;
53519;SDS011;39397;53.204;5.778;2023-08-06T10:33:12;3.45;;;1.83;;
53519;SDS011;39397;53.204;5.778;2023-08-06T10:35:45;5.28;;;2.00;;
53519;SDS011;39397;53.204;5.778;2023-08-06T10:40:48;7.15;;;2.03;;
53519;SDS011;39397;53.204;5.778;2023-08-06T10:43:24;4.35;;;1.70;;
53519;SDS011;39397;53.204;5.778;2023-08-06T10:45:55;5.35;;;2.00;;
53519;SDS011;39397;53.204;5.778;2023-08-06T10:48:32;4.53;;;2.15;;
53519;SDS011;39397;53.204;5.778;2023-08-06T10:50:59;4.93;;;1.80;;
53519;SDS011;39397;53.204;5.778;2023-08-06T10:53:25;5.03;;;2.50;;
53519;SDS011;39397;53.204;5.778;2023-08-06T10:55:51;4.70;;;1.77;;
53519;SDS011;39397;53.204;5.778;2023-08-06T10:58:17;3.05;;;2.05;;
53519;SDS011;39397;53.204;5.778;2023-08-06T11:00:43;3.92;;;2.40;;
53519;SDS011;39397;53.204;5.778;2023-08-06T11:03:09;4.70;;;2.58;;
53519;SDS011;39397;53.204;5.778;2023-08-06T11:05:38;5.85;;;2.72;;
53519;SDS011;39397;53.204;5.778;2023-08-06T11:08:04;4.13;;;2.17;;
53519;SDS011;39397;53.204;5.778;2023-08-06T11:10:32;3.92;;;2.38;;
53519;SDS011;39397;53.204;5.778;2023-08-06T11:13:01;5.30;;;2.30;;
53519;SDS011;39397;53.204;5.778;2023-08-06T11:15:28;5.05;;;2.80;;
53519;SDS011;39397;53.204;5.778;2023-08-06T11:17:55;4.05;;;2.30;;
53519;SDS011;39397;53.204;5.778;2023-08-06T11:20:21;5.97;;;2.53;;
53519;SDS011;39397;53.204;5.778;2023-08-06T11:22:49;5.20;;;2.45;;
53519;SDS011;39397;53.204;5.778;2023-08-06T11:25:15;8.60;;;2.50;;
53519;SDS011;39397;53.204;5.778;2023-08-06T11:27:41;5.00;;;2.45;;
53519;SDS011;39397;53.204;5.778;2023-08-06T11:30:07;4.93;;;2.95;;
53519;SDS011;39397;53.204;5.778;2023-08-06T11:32:44;5.25;;;2.70;;
53519;SDS011;39397;53.204;5.778;2023-08-06T11:35:12;5.28;;;2.72;;
53519;SDS011;39397;53.204;5.778;2023-08-06T11:37:38;6.00;;;3.05;;
53519;SDS011;39397;53.204;5.778;2023-08-06T11:40:08;4.82;;;2.60;;
53519;SDS011;39397;53.204;5.778;2023-08-06T11:42:36;4.93;;;2.60;;
53519;SDS011;39397;53.204;5.778;2023-08-06T11:45:05;4.63;;;2.40;;
53519;SDS011;39397;53.204;5.778;2023-08-06T11:47:31;4.20;;;2.50;;
53519;SDS011;39397;53.204;5.778;2023-08-06T11:49:57;4.45;;;2.42;;
53519;SDS011;39397;53.204;5.778;2023-08-06T11:52:23;5.03;;;2.88;;
53519;SDS011;39397;53.204;5.778;2023-08-06T11:55:02;4.85;;;2.80;;
53519;SDS011;39397;53.204;5.778;2023-08-06T11:57:33;5.63;;;2.80;;
53519;SDS011;39397;53.204;5.778;2023-08-06T12:00:06;4.25;;;2.35;;
53519;SDS011;39397;53.204;5.778;2023-08-06T12:02:34;3.80;;;2.30;;
53519;SDS011;39397;53.204;5.778;2023-08-06T12:07:46;5.68;;;2.33;;
53519;SDS011;39397;53.204;5.778;2023-08-06T12:10:14;3.53;;;2.00;;
53519;SDS011;39397;53.204;5.778;2023-08-06T12:12:41;3.42;;;2.00;;
53519;SDS011;39397;53.204;5.778;2023-08-06T12:15:08;4.80;;;2.78;;
53519;SDS011;39397;53.204;5.778;2023-08-06T12:17:35;3.97;;;2.50;;
53519;SDS011;39397;53.204;5.778;2023-08-06T12:20:03;4.65;;;2.10;;
53519;SDS011;39397;53.204;5.778;2023-08-06T12:22:29;4.13;;;2.28;;
53519;SDS011;39397;53.204;5.778;2023-08-06T12:25:03;3.20;;;2.17;;
53519;SDS011;39397;53.204;5.778;2023-08-06T12:27:33;4.60;;;2.58;;
53519;SDS011;39397;53.204;5.778;2023-08-06T12:29:59;4.95;;;2.50;;
53519;SDS011;39397;53.204;5.778;2023-08-06T12:32:25;4.60;;;2.30;;
53519;SDS011;39397;53.204;5.778;2023-08-06T12:34:51;2.95;;;2.15;;
53519;SDS011;39397;53.204;5.778;2023-08-06T12:37:17;4.22;;;2.55;;
53519;SDS011;39397;53.204;5.778;2023-08-06T12:39:42;3.08;;;2.13;;
53519;SDS011;39397;53.204;5.778;2023-08-06T12:42:08;7.60;;;2.20;;
53519;SDS011;39397;53.204;5.778;2023-08-06T12:44:35;5.35;;;2.50;;
53519;SDS011;39397;53.204;5.778;2023-08-06T12:47:01;4.00;;;2.50;;
53519;SDS011;39397;53.204;5.778;2023-08-06T12:49:26;4.28;;;2.15;;
53519;SDS011;39397;53.204;5.778;2023-08-06T12:51:54;4.00;;;2.40;;
53519;SDS011;39397;53.204;5.778;2023-08-06T12:54:21;4.60;;;2.30;;
53519;SDS011;39397;53.204;5.778;2023-08-06T12:56:47;3.97;;;2.53;;
53519;SDS011;39397;53.204;5.778;2023-08-06T12:59:14;4.13;;;2.20;;
53519;SDS011;39397;53.204;5.778;2023-08-06T13:01:41;5.88;;;2.53;;
53519;SDS011;39397;53.204;5.778;2023-08-06T13:04:07;6.07;;;2.70;;
53519;SDS011;39397;53.204;5.778;2023-08-06T13:06:35;4.03;;;2.30;;
53519;SDS011;39397;53.204;5.778;2023-08-06T13:09:11;3.45;;;2.00;;
53519;SDS011;39397;53.204;5.778;2023-08-06T13:11:40;3.90;;;2.33;;
53519;SDS011;39397;53.204;5.778;2023-08-06T13:14:07;4.47;;;2.30;;
53519;SDS011;39397;53.204;5.778;2023-08-06T13:16:35;4.20;;;2.20;;
53519;SDS011;39397;53.204;5.778;2023-08-06T13:19:02;4.88;;;2.38;;
53519;SDS011;39397;53.204;5.778;2023-08-06T13:24:07;4.35;;;2.10;;
53519;SDS011;39397;53.204;5.778;2023-08-06T13:26:33;6.70;;;2.33;;
53519;SDS011;39397;53.204;5.778;2023-08-06T13:28:59;5.20;;;2.35;;
53519;SDS011;39397;53.204;5.778;2023-08-06T13:31:26;4.22;;;2.10;;
53519;SDS011;39397;53.204;5.778;2023-08-06T13:33:53;4.70;;;2.08;;
53519;SDS011;39397;53.204;5.778;2023-08-06T13:36:21;3.22;;;2.10;;
53519;SDS011;39397;53.204;5.778;2023-08-06T13:38:47;4.40;;;2.13;;
53519;SDS011;39397;53.204;5.778;2023-08-06T13:41:13;4.32;;;2.20;;
53519;SDS011;39397;53.204;5.778;2023-08-06T13:43:38;5.13;;;2.28;;
53519;SDS011;39397;53.204;5.778;2023-08-06T13:46:05;3.88;;;2.00;;
53519;SDS011;39397;53.204;5.778;2023-08-06T13:48:30;3.42;;;1.95;;
53519;SDS011;39397;53.204;5.778;2023-08-06T13:50:56;3.80;;;1.70;;
53519;SDS011;39397;53.204;5.778;2023-08-06T13:53:22;6.97;;;2.70;;
53519;SDS011;39397;53.204;5.778;2023-08-06T13:55:47;8.85;;;2.33;;
53519;SDS011;39397;53.204;5.778;2023-08-06T13:58:13;5.93;;;2.53;;
53519;SDS011;39397;53.204;5.778;2023-08-06T14:00:39;6.63;;;2.40;;
53519;SDS011;39397;53.204;5.778;2023-08-06T14:03:04;5.55;;;2.10;;
53519;SDS011;39397;53.204;5.778;2023-08-06T14:05:30;5.68;;;2.13;;
53519;SDS011;39397;53.204;5.778;2023-08-06T14:07:56;4.70;;;2.00;;
53519;SDS011;39397;53.204;5.778;2023-08-06T14:10:21;4.80;;;2.05;;
53519;SDS011;39397;53.204;5.778;2023-08-06T14:12:47;5.70;;;2.20;;
53519;SDS011;39397;53.204;5.778;2023-08-06T14:15:14;4.95;;;2.30;;
53519;SDS011;39397;53.204;5.778;2023-08-06T14:17:39;5.00;;;2.22;;
53519;SDS011;39397;53.204;5.778;2023-08-06T14:20:06;4.35;;;2.38;;
53519;SDS011;39397;53.204;5.778;2023-08-06T14:22:34;5.38;;;2.33;;
53519;SDS011;39397;53.204;5.778;2023-08-06T14:25:00;4.43;;;2.03;;
53519;SDS011;39397;53.204;5.778;2023-08-06T14:27:25;4.75;;;2.10;;
53519;SDS011;39397;53.204;5.778;2023-08-06T14:29:51;4.30;;;1.80;;
53519;SDS011;39397;53.204;5.778;2023-08-06T14:32:17;5.32;;;1.85;;
53519;SDS011;39397;53.204;5.778;2023-08-06T14:34:43;4.70;;;1.70;;
53519;SDS011;39397;53.204;5.778;2023-08-06T14:37:09;5.40;;;2.25;;
53519;SDS011;39397;53.204;5.778;2023-08-06T14:39:36;3.38;;;1.63;;
53519;SDS011;39397;53.204;5.778;2023-08-06T14:42:02;3.42;;;1.70;;
53519;SDS011;39397;53.204;5.778;2023-08-06T14:44:28;3.80;;;1.63;;
53519;SDS011;39397;53.204;5.778;2023-08-06T14:46:54;4.13;;;1.60;;
53519;SDS011;39397;53.204;5.778;2023-08-06T14:49:20;3.83;;;1.83;;
53519;SDS011;39397;53.204;5.778;2023-08-06T14:51:45;5.47;;;2.10;;
53519;SDS011;39397;53.204;5.778;2023-08-06T14:54:11;3.90;;;1.80;;